createdAt,value
2023-01-15T00:02:18.305Z,36.70
2023-01-15T00:04:45.014Z,36.60
2023-01-15T00:07:11.711Z,37.50
2023-01-15T00:09:38.383Z,31.60
2023-01-15T00:12:05.329Z,32.80
2023-01-15T00:14:31.997Z,35.10
2023-01-15T00:16:58.726Z,29.80
2023-01-15T00:19:25.422Z,31.20
2023-01-15T00:21:53.876Z,29.80
2023-01-15T00:24:39.257Z,32.90
2023-01-15T00:27:24.546Z,33.60
2023-01-15T00:29:51.226Z,31.40
2023-01-15T00:32:17.927Z,31.90
2023-01-15T00:34:44.607Z,29.60
2023-01-15T00:37:11.265Z,32.40
2023-01-15T00:39:38.000Z,28.00
2023-01-15T00:42:04.679Z,29.70
2023-01-15T00:44:33.617Z,24.60
2023-01-15T00:47:00.576Z,26.40
2023-01-15T00:49:27.250Z,25.60
2023-01-15T00:51:53.950Z,27.40
2023-01-15T00:54:20.660Z,27.60
2023-01-15T00:56:47.357Z,24.70
2023-01-15T00:59:14.068Z,28.30
2023-01-15T01:01:41.048Z,30.50
2023-01-15T01:04:07.795Z,27.90
2023-01-15T01:06:34.919Z,29.60
2023-01-15T01:09:01.640Z,23.40
2023-01-15T01:11:34.155Z,29.30
2023-01-15T01:14:03.845Z,24.20
2023-01-15T01:16:38.482Z,23.10
2023-01-15T01:19:07.351Z,23.70
2023-01-15T01:21:34.108Z,30.10
2023-01-15T01:24:01.078Z,29.20
2023-01-15T01:26:28.730Z,24.00
2023-01-15T01:28:56.004Z,23.60
2023-01-15T01:31:23.164Z,29.00
2023-01-15T01:33:50.890Z,30.00
2023-01-15T01:36:17.933Z,28.80
2023-01-15T01:38:45.111Z,28.80
2023-01-15T01:41:11.791Z,26.80
2023-01-15T01:44:02.797Z,25.80
2023-01-15T01:46:31.255Z,24.70
2023-01-15T01:49:00.614Z,26.70
2023-01-15T01:51:30.077Z,24.50
2023-01-15T01:53:56.822Z,24.50
2023-01-15T01:56:24.119Z,28.40
2023-01-15T01:58:53.188Z,21.90
2023-01-15T02:01:20.007Z,22.30
2023-01-15T02:03:46.771Z,25.40
2023-01-15T02:06:13.659Z,21.90
2023-01-15T02:08:40.381Z,24.60
2023-01-15T02:11:07.803Z,23.40
2023-01-15T02:13:39.339Z,26.20
2023-01-15T02:16:16.899Z,25.50
2023-01-15T02:18:49.043Z,24.60
2023-01-15T02:21:48.888Z,24.90
2023-01-15T02:24:32.087Z,24.00
2023-01-15T02:27:15.695Z,23.00
2023-01-15T02:29:56.467Z,22.30
2023-01-15T02:32:52.488Z,21.30
2023-01-15T02:35:42.563Z,23.80
2023-01-15T02:38:12.624Z,25.50
2023-01-15T02:40:39.374Z,25.90
2023-01-15T02:43:06.023Z,28.60
2023-01-15T02:45:33.825Z,22.10
2023-01-15T02:48:06.947Z,30.20
2023-01-15T02:50:36.998Z,30.60
2023-01-15T02:53:07.714Z,23.30
2023-01-15T02:55:36.662Z,24.90
2023-01-15T02:58:05.771Z,25.70
2023-01-15T03:00:35.763Z,23.40
2023-01-15T03:03:09.413Z,21.10
2023-01-15T03:05:39.107Z,23.30
2023-01-15T03:08:07.339Z,21.00
2023-01-15T03:11:17.067Z,27.60
2023-01-15T03:13:54.624Z,21.90
2023-01-15T03:16:50.360Z,24.10
2023-01-15T03:19:40.407Z,26.00
2023-01-15T03:22:25.970Z,23.20
2023-01-15T03:24:59.640Z,24.10
2023-01-15T03:27:28.021Z,25.10
2023-01-15T03:30:04.421Z,24.80
2023-01-15T03:32:31.449Z,22.40
2023-01-15T03:34:58.590Z,24.80
2023-01-15T03:37:25.860Z,24.00
2023-01-15T03:39:53.731Z,21.70
2023-01-15T03:42:40.722Z,23.40
2023-01-15T03:45:16.653Z,22.50
2023-01-15T03:48:03.078Z,20.80
2023-01-15T03:51:00.725Z,20.10
2023-01-15T03:53:34.125Z,23.10
2023-01-15T03:56:03.656Z,25.30
2023-01-15T03:58:41.537Z,23.70
2023-01-15T04:01:10.902Z,23.00
2023-01-15T04:03:38.045Z,22.90
2023-01-15T04:06:05.659Z,26.10
2023-01-15T04:08:38.658Z,23.30
2023-01-15T04:11:05.557Z,24.40
2023-01-15T04:13:38.918Z,23.80
2023-01-15T04:16:08.621Z,23.10
2023-01-15T04:18:35.909Z,21.50
2023-01-15T04:21:04.770Z,25.60
2023-01-15T04:23:33.781Z,27.70
2023-01-15T04:26:00.490Z,26.90
2023-01-15T04:28:27.173Z,27.10
2023-01-15T04:30:56.700Z,30.40
2023-01-15T04:33:23.461Z,29.40
2023-01-15T04:35:50.142Z,24.00
2023-01-15T04:38:18.066Z,28.70
2023-01-15T04:41:03.509Z,26.90
2023-01-15T04:43:48.817Z,30.50
2023-01-15T04:46:15.585Z,30.20
2023-01-15T04:48:42.524Z,25.70
2023-01-15T04:51:09.380Z,24.10
2023-01-15T04:53:36.124Z,25.10
2023-01-15T04:56:03.790Z,25.10
2023-01-15T04:58:30.582Z,24.30
2023-01-15T05:00:57.436Z,27.00
2023-01-15T05:03:24.213Z,28.00
2023-01-15T05:05:51.024Z,24.90
2023-01-15T05:08:17.811Z,29.40
2023-01-15T05:10:44.594Z,27.00
2023-01-15T05:13:11.415Z,25.40
2023-01-15T05:15:40.668Z,28.90
2023-01-15T05:18:07.450Z,29.50
2023-01-15T05:20:37.007Z,30.00
2023-01-15T05:23:03.767Z,29.00
2023-01-15T05:25:30.556Z,32.80
2023-01-15T05:27:57.351Z,30.80
2023-01-15T05:30:24.097Z,31.10
2023-01-15T05:32:51.545Z,30.40
2023-01-15T05:35:18.375Z,30.90
2023-01-15T05:37:45.199Z,35.40
2023-01-15T05:40:14.165Z,31.50
2023-01-15T05:42:44.160Z,35.90
2023-01-15T05:45:15.116Z,34.00
2023-01-15T05:47:45.007Z,34.20
2023-01-15T05:50:15.169Z,34.60
2023-01-15T05:52:45.143Z,35.80
2023-01-15T05:55:15.165Z,34.00
2023-01-15T05:57:44.948Z,33.90
2023-01-15T06:00:14.171Z,31.60
2023-01-15T06:02:44.151Z,27.70
2023-01-15T06:05:15.176Z,38.70
2023-01-15T06:07:44.602Z,32.20
2023-01-15T06:10:13.912Z,32.90
2023-01-15T06:12:43.075Z,37.10
2023-01-15T06:15:13.063Z,39.30
2023-01-15T06:17:43.134Z,38.70
2023-01-15T06:20:12.578Z,34.60
2023-01-15T06:22:42.195Z,30.00
2023-01-15T06:25:11.970Z,34.30
2023-01-15T06:27:44.504Z,30.60
2023-01-15T06:30:14.179Z,32.70
2023-01-15T06:32:44.138Z,28.50
2023-01-15T06:35:15.143Z,37.00
2023-01-15T06:37:45.546Z,33.50
2023-01-15T06:47:49.416Z,33.70
2023-01-15T06:50:16.847Z,25.30
2023-01-15T06:52:43.637Z,31.90
2023-01-15T06:55:11.686Z,24.80
2023-01-15T06:57:40.017Z,28.00
2023-01-15T07:00:08.615Z,38.40
2023-01-15T07:02:35.462Z,32.80
2023-01-15T07:05:02.441Z,38.50
2023-01-15T07:07:29.911Z,37.40
2023-01-15T07:09:56.771Z,31.80
2023-01-15T07:12:23.680Z,34.60
2023-01-15T07:14:50.400Z,35.70
2023-01-15T07:17:17.163Z,39.30
2023-01-15T07:19:44.909Z,41.20
2023-01-15T07:22:11.689Z,43.10
2023-01-15T07:24:38.484Z,36.20
2023-01-15T07:27:05.869Z,39.10
2023-01-15T07:29:32.591Z,38.50
2023-01-15T07:31:59.505Z,42.30
2023-01-15T07:34:26.197Z,40.20
2023-01-15T07:36:52.969Z,41.30
2023-01-15T07:39:19.784Z,38.50
2023-01-15T07:42:05.389Z,47.60
2023-01-15T07:44:53.613Z,43.70
2023-01-15T07:47:40.741Z,39.70
2023-01-15T07:50:12.526Z,41.10
2023-01-15T07:52:39.442Z,39.50
2023-01-15T07:55:08.600Z,39.80
2023-01-15T07:57:35.504Z,40.20
2023-01-15T08:00:02.362Z,41.40
2023-01-15T08:02:39.336Z,43.00
2023-01-15T08:05:06.852Z,44.70
2023-01-15T08:07:40.741Z,41.30
2023-01-15T08:10:09.202Z,43.90
2023-01-15T08:12:57.123Z,40.20
2023-01-15T08:15:24.956Z,36.90
2023-01-15T08:17:51.678Z,31.80
2023-01-15T08:20:20.775Z,38.70
2023-01-15T08:22:48.247Z,42.20
2023-01-15T08:25:17.437Z,31.60
2023-01-15T08:27:44.318Z,36.80
2023-01-15T08:30:13.758Z,39.70
2023-01-15T08:32:40.560Z,38.90
2023-01-15T08:35:07.970Z,32.70
2023-01-15T08:37:35.269Z,36.10
2023-01-15T08:40:02.110Z,40.20
2023-01-15T08:42:28.892Z,35.70
2023-01-15T08:44:55.609Z,38.10
2023-01-15T08:47:22.300Z,32.80
2023-01-15T08:49:49.153Z,30.90
2023-01-15T08:52:16.074Z,39.90
2023-01-15T08:54:43.490Z,34.00
2023-01-15T08:57:12.184Z,34.00
2023-01-15T08:59:38.952Z,30.00
2023-01-15T09:02:05.732Z,38.00
2023-01-15T09:04:32.692Z,34.20
2023-01-15T09:06:59.435Z,32.30
2023-01-15T09:09:26.425Z,31.80
2023-01-15T09:11:53.120Z,33.20
2023-01-15T09:14:58.728Z,29.90
2023-01-15T09:17:06.558Z,31.50
2023-01-15T09:19:33.361Z,33.20
2023-01-15T09:22:00.166Z,25.80
2023-01-15T09:24:27.127Z,39.00
2023-01-15T09:26:54.027Z,37.10
2023-01-15T09:29:20.737Z,24.00
2023-01-15T09:31:47.740Z,25.60
2023-01-15T09:34:14.461Z,30.30
2023-01-15T09:36:41.583Z,28.00
2023-01-15T09:39:08.558Z,30.30
2023-01-15T09:42:08.625Z,31.50
2023-01-15T09:45:02.659Z,21.80
2023-01-15T09:47:36.854Z,26.70
2023-01-15T09:50:05.683Z,31.00
2023-01-15T09:52:58.571Z,33.90
2023-01-15T09:55:29.464Z,33.70
2023-01-15T09:57:58.342Z,31.30
2023-01-15T10:00:26.811Z,32.20
2023-01-15T10:03:00.790Z,27.40
2023-01-15T10:05:36.179Z,32.50
2023-01-15T10:08:25.173Z,33.00
2023-01-15T10:10:56.797Z,31.00
2023-01-15T10:13:39.695Z,33.30
2023-01-15T10:16:06.784Z,38.10
2023-01-15T10:18:33.622Z,36.50
2023-01-15T10:21:19.314Z,36.30
2023-01-15T10:24:19.545Z,43.80
2023-01-15T10:26:56.724Z,35.20
2023-01-15T10:29:45.684Z,33.80
2023-01-15T10:32:42.780Z,28.90
2023-01-15T10:35:19.854Z,32.70
2023-01-15T10:40:33.063Z,38.80
2023-01-15T10:43:18.657Z,30.10
2023-01-15T10:46:00.149Z,18.90
2023-01-15T10:48:47.629Z,30.40
2023-01-15T10:51:23.426Z,31.80
2023-01-15T10:54:03.681Z,29.40
2023-01-15T10:56:54.121Z,29.70
2023-01-15T10:59:30.884Z,22.10
2023-01-15T11:01:57.836Z,21.00
2023-01-15T20:44:45.253Z,25.50
2023-01-15T20:47:31.029Z,13.80
2023-01-15T20:49:58.282Z,13.80
2023-01-15T20:52:24.987Z,20.00
2023-01-15T20:54:51.674Z,17.80
2023-01-15T20:57:18.709Z,14.30
2023-01-15T20:59:45.485Z,26.20
2023-01-15T21:02:12.505Z,27.40
2023-01-15T21:04:39.182Z,26.20
2023-01-15T21:07:05.853Z,24.60
2023-01-15T21:09:32.650Z,18.10
2023-01-15T21:11:59.350Z,19.50
2023-01-15T21:14:26.048Z,16.90
2023-01-15T21:16:53.688Z,20.30
2023-01-15T21:19:21.244Z,17.00
2023-01-15T21:21:47.977Z,10.70
2023-01-15T21:24:14.664Z,14.90
2023-01-15T21:26:41.363Z,15.90
2023-01-15T21:29:08.199Z,16.50
2023-01-15T21:31:35.016Z,13.10
2023-01-15T21:34:01.878Z,12.70
2023-01-15T21:36:28.575Z,15.50
2023-01-15T21:38:55.374Z,12.80
2023-01-15T21:41:45.492Z,16.00
2023-01-15T21:44:33.354Z,23.50
2023-01-15T21:47:01.897Z,16.60
2023-01-15T21:49:29.298Z,11.10
2023-01-15T21:51:56.072Z,16.80
2023-01-15T21:54:23.092Z,17.20
2023-01-15T21:56:49.960Z,16.00
2023-01-15T21:59:16.768Z,20.60
2023-01-15T22:01:43.656Z,17.20
2023-01-15T22:04:10.481Z,18.80
2023-01-15T22:06:38.038Z,16.80
2023-01-15T22:09:05.090Z,17.30
2023-01-15T22:11:43.906Z,17.40
2023-01-15T22:14:23.819Z,19.90
2023-01-15T22:16:53.700Z,14.90
2023-01-15T22:19:21.353Z,22.90
2023-01-15T22:21:49.194Z,14.80
2023-01-15T22:24:16.294Z,20.70
2023-01-15T22:26:43.848Z,15.50
2023-01-15T22:29:11.241Z,16.80
2023-01-15T22:31:40.603Z,14.40
2023-01-15T22:34:08.020Z,21.80
2023-01-15T22:36:35.337Z,25.20
2023-01-15T22:39:02.116Z,29.50
2023-01-15T22:41:47.717Z,23.90
2023-01-15T22:44:14.451Z,26.00
2023-01-15T22:46:41.210Z,19.60
2023-01-15T22:49:08.230Z,31.10
2023-01-15T22:51:34.908Z,17.40
2023-01-15T22:54:01.613Z,30.30
2023-01-15T22:56:28.402Z,25.10
2023-01-15T22:58:55.627Z,21.10
2023-01-15T23:01:23.423Z,21.80
2023-01-15T23:03:50.353Z,19.60
2023-01-15T23:06:20.557Z,23.40
2023-01-15T23:08:47.247Z,21.30
2023-01-15T23:11:15.419Z,25.00
2023-01-15T23:13:42.373Z,18.70
2023-01-15T23:16:09.322Z,20.10
2023-01-15T23:18:36.203Z,18.90
2023-01-15T23:21:14.037Z,24.40
2023-01-15T23:23:40.755Z,21.30
2023-01-15T23:26:09.507Z,15.40
2023-01-15T23:28:36.191Z,23.60
2023-01-15T23:31:03.187Z,19.30
2023-01-15T23:33:29.890Z,25.90
2023-01-15T23:35:56.669Z,25.90
2023-01-15T23:38:23.400Z,26.70
2023-01-15T23:40:50.180Z,23.20
2023-01-15T23:43:35.755Z,23.10
2023-01-15T23:46:32.861Z,26.20
2023-01-15T23:49:03.266Z,27.00
2023-01-15T23:51:30.293Z,24.40
2023-01-15T23:53:57.449Z,26.80
2023-01-15T23:56:24.280Z,15.80
2023-01-15T23:58:51.064Z,18.20
